Accueil
METAR-TAF:

METAR-TAF

Aéroports :

Aéroport de Graz

Graz, Autriche

latitude: 47-00N, longitude: 015-26E, altitude: 340 m

Observation

Le bulletin a été fait il y a 33 minutes, à 17:20 UTC
Vent 7 kt de est/sud-est
Température 22°C
Humidité 46%
Pression 1010 hPa
Visibilité 10 km ou plus
Quelques nuages à une hauteur de 6000 ft

METAR: LOWG 191720Z AUTO 12007KT 9999 FEW060 22/10 Q1010 NOSIG

Heure: 19:53 (17:53 UTC)

Prévision

Le bulletin a été fait il y a 38 minutes, à 17:15 UTC
Prévision valable du 19 à 18 UTC au 20 à 18 UTC
Vent 3 kt de direction variable
Visibilité 10 km ou plus
Quelques nuages à une hauteur de 6000 ft
Temporairement
du 19 à 18 UTC au 19 à 22 UTC
Quelques nuages à une hauteur de 6000 ft, Cumulonimbus.
Evoluant progressivement
du 20 à 10 UTC au 20 à 12 UTC
Vent 8 kt de sud/sud-est

TAF: LOWG 191715Z 1918/2018 VRB03KT 9999 FEW060 TX24/2013Z TN12/2003Z TEMPO 1918/1922 FEW060CB BECMG 2010/2012 15008KT

Observations et prévisions météorologiques de plus de 4000 aéroports (messages METAR et TAF).

Les stations disponibles sont représentées par des disques jaunes et rouges sur la carte.

Passer la souris dessus pour voir le nom de la station.

Cliquer dessus pour voir les observations et prévisions météorologiques.

Pour changer de carte: cliquez sur les boutons verts avec une croix noire pour zoomer, sur le bouton vert avec un tiret pour effectuer un zoom arrière, ou sur les flèches vertes pour les cartes adjacentes.


METAR-TAF: